sensor_id;sensor_type;location;lat;lon;timestamp;temperature;humidity
27368;DHT22;14839;48.106;11.618;2023-04-29T04:02:41;10.80;94.60
27368;DHT22;14839;48.106;11.618;2023-04-29T04:05:07;10.70;94.60
27368;DHT22;14839;48.106;11.618;2023-04-29T04:07:32;10.70;94.60
27368;DHT22;14839;48.106;11.618;2023-04-29T04:09:58;10.60;94.60
27368;DHT22;14839;48.106;11.618;2023-04-29T04:12:23;10.60;94.60
27368;DHT22;14839;48.106;11.618;2023-04-29T04:14:49;10.60;94.60
27368;DHT22;14839;48.106;11.618;2023-04-29T04:17:15;10.70;94.60
27368;DHT22;14839;48.106;11.618;2023-04-29T04:19:41;10.70;94.60
27368;DHT22;14839;48.106;11.618;2023-04-29T04:22:06;10.80;94.60
27368;DHT22;14839;48.106;11.618;2023-04-29T04:24:32;10.80;94.60
27368;DHT22;14839;48.106;11.618;2023-04-29T04:26:57;10.90;94.60
27368;DHT22;14839;48.106;11.618;2023-04-29T04:29:23;10.90;94.60
27368;DHT22;14839;48.106;11.618;2023-04-29T04:31:48;10.90;94.60
27368;DHT22;14839;48.106;11.618;2023-04-29T04:34:14;11.00;94.60
27368;DHT22;14839;48.106;11.618;2023-04-29T04:36:39;11.00;94.60
27368;DHT22;14839;48.106;11.618;2023-04-29T04:39:05;11.10;94.60
27368;DHT22;14839;48.106;11.618;2023-04-29T04:41:31;11.20;94.60
27368;DHT22;14839;48.106;11.618;2023-04-29T04:43:57;11.20;94.60
27368;DHT22;14839;48.106;11.618;2023-04-29T04:46:22;11.30;94.60
27368;DHT22;14839;48.106;11.618;2023-04-29T04:48:48;11.40;94.60
27368;DHT22;14839;48.106;11.618;2023-04-29T04:51:14;11.50;94.60
27368;DHT22;14839;48.106;11.618;2023-04-29T04:53:39;11.50;94.60
27368;DHT22;14839;48.106;11.618;2023-04-29T04:56:05;11.60;94.60
27368;DHT22;14839;48.106;11.618;2023-04-29T04:58:31;11.60;94.60
27368;DHT22;14839;48.106;11.618;2023-04-29T05:01:00;11.70;94.60
27368;DHT22;14839;48.106;11.618;2023-04-29T05:03:26;11.80;94.60
27368;DHT22;14839;48.106;11.618;2023-04-29T05:05:56;11.90;94.60
27368;DHT22;14839;48.106;11.618;2023-04-29T05:08:23;11.90;94.60
27368;DHT22;14839;48.106;11.618;2023-04-29T05:10:48;12.00;94.60
27368;DHT22;14839;48.106;11.618;2023-04-29T05:13:14;12.00;94.60
27368;DHT22;14839;48.106;11.618;2023-04-29T05:15:40;12.10;94.60
27368;DHT22;14839;48.106;11.618;2023-04-29T05:18:06;12.10;94.60
27368;DHT22;14839;48.106;11.618;2023-04-29T05:20:31;12.20;94.60
27368;DHT22;14839;48.106;11.618;2023-04-29T05:22:57;12.60;94.60
27368;DHT22;14839;48.106;11.618;2023-04-29T05:25:22;12.90;94.60
27368;DHT22;14839;48.106;11.618;2023-04-29T05:27:48;13.10;94.60
27368;DHT22;14839;48.106;11.618;2023-04-29T05:30:13;13.30;94.60
27368;DHT22;14839;48.106;11.618;2023-04-29T05:32:40;13.40;94.60
27368;DHT22;14839;48.106;11.618;2023-04-29T05:35:06;13.80;94.60
27368;DHT22;14839;48.106;11.618;2023-04-29T05:37:31;14.60;94.60
27368;DHT22;14839;48.106;11.618;2023-04-29T05:39:57;15.90;94.60
27368;DHT22;14839;48.106;11.618;2023-04-29T05:42:23;16.70;94.60
27368;DHT22;14839;48.106;11.618;2023-04-29T05:44:49;17.30;94.60
27368;DHT22;14839;48.106;11.618;2023-04-29T05:47:14;17.90;94.60
27368;DHT22;14839;48.106;11.618;2023-04-29T05:49:40;18.30;94.60
27368;DHT22;14839;48.106;11.618;2023-04-29T05:52:06;18.90;94.60
27368;DHT22;14839;48.106;11.618;2023-04-29T05:54:35;19.60;93.10
27368;DHT22;14839;48.106;11.618;2023-04-29T05:57:01;20.50;88.00
27368;DHT22;14839;48.106;11.618;2023-04-29T05:59:28;20.60;87.50
27368;DHT22;14839;48.106;11.618;2023-04-29T06:01:55;20.50;89.60
27368;DHT22;14839;48.106;11.618;2023-04-29T06:04:21;20.80;88.70
27368;DHT22;14839;48.106;11.618;2023-04-29T06:06:46;21.30;86.30
27368;DHT22;14839;48.106;11.618;2023-04-29T06:09:13;21.60;85.00
27368;DHT22;14839;48.106;11.618;2023-04-29T06:11:40;22.40;82.60
27368;DHT22;14839;48.106;11.618;2023-04-29T06:14:05;22.40;83.60
27368;DHT22;14839;48.106;11.618;2023-04-29T06:16:31;22.80;80.50
27368;DHT22;14839;48.106;11.618;2023-04-29T06:18:57;22.60;80.20
27368;DHT22;14839;48.106;11.618;2023-04-29T06:21:23;22.70;79.60
27368;DHT22;14839;48.106;11.618;2023-04-29T06:23:48;22.50;79.90
27368;DHT22;14839;48.106;11.618;2023-04-29T06:26:14;22.20;81.80
27368;DHT22;14839;48.106;11.618;2023-04-29T06:28:39;22.40;82.00
27368;DHT22;14839;48.106;11.618;2023-04-29T06:31:05;22.20;82.10
27368;DHT22;14839;48.106;11.618;2023-04-29T06:33:31;22.10;82.60
27368;DHT22;14839;48.106;11.618;2023-04-29T06:35:58;21.60;82.90
27368;DHT22;14839;48.106;11.618;2023-04-29T06:38:25;21.20;83.90
27368;DHT22;14839;48.106;11.618;2023-04-29T06:40:50;20.80;85.60
27368;DHT22;14839;48.106;11.618;2023-04-29T06:43:16;20.20;87.70
27368;DHT22;14839;48.106;11.618;2023-04-29T06:45:45;19.50;90.20
27368;DHT22;14839;48.106;11.618;2023-04-29T06:48:11;18.70;91.90
27368;DHT22;14839;48.106;11.618;2023-04-29T06:50:36;18.20;93.30
27368;DHT22;14839;48.106;11.618;2023-04-29T06:53:02;17.70;94.60
27368;DHT22;14839;48.106;11.618;2023-04-29T06:55:28;17.40;94.60
27368;DHT22;14839;48.106;11.618;2023-04-29T06:57:53;17.30;94.60
27368;DHT22;14839;48.106;11.618;2023-04-29T07:00:19;17.30;94.60
27368;DHT22;14839;48.106;11.618;2023-04-29T07:02:47;17.30;94.60
27368;DHT22;14839;48.106;11.618;2023-04-29T07:05:12;17.40;94.60
27368;DHT22;14839;48.106;11.618;2023-04-29T07:07:38;17.20;94.60
27368;DHT22;14839;48.106;11.618;2023-04-29T07:10:04;17.00;94.60
27368;DHT22;14839;48.106;11.618;2023-04-29T07:12:29;17.10;94.60
27368;DHT22;14839;48.106;11.618;2023-04-29T07:14:56;17.10;94.60
27368;DHT22;14839;48.106;11.618;2023-04-29T07:17:22;17.40;94.60
27368;DHT22;14839;48.106;11.618;2023-04-29T07:19:48;17.50;94.60
27368;DHT22;14839;48.106;11.618;2023-04-29T07:22:13;17.50;94.60
27368;DHT22;14839;48.106;11.618;2023-04-29T07:24:39;17.90;94.60
27368;DHT22;14839;48.106;11.618;2023-04-29T07:27:05;17.90;94.60
27368;DHT22;14839;48.106;11.618;2023-04-29T07:29:32;18.30;94.60
27368;DHT22;14839;48.106;11.618;2023-04-29T07:31:57;19.20;92.90
27368;DHT22;14839;48.106;11.618;2023-04-29T07:34:23;19.40;92.20
27368;DHT22;14839;48.106;11.618;2023-04-29T07:36:48;19.60;91.50
27368;DHT22;14839;48.106;11.618;2023-04-29T07:39:14;19.70;91.50
27368;DHT22;14839;48.106;11.618;2023-04-29T07:41:40;20.00;91.00
27368;DHT22;14839;48.106;11.618;2023-04-29T07:44:06;20.50;88.00
27368;DHT22;14839;48.106;11.618;2023-04-29T07:46:31;20.60;89.00
27368;DHT22;14839;48.106;11.618;2023-04-29T07:48:57;20.50;87.50
27368;DHT22;14839;48.106;11.618;2023-04-29T07:51:23;20.50;89.30
27368;DHT22;14839;48.106;11.618;2023-04-29T07:53:48;20.20;89.20
27368;DHT22;14839;48.106;11.618;2023-04-29T07:56:14;20.00;87.20
27368;DHT22;14839;48.106;11.618;2023-04-29T07:58:40;20.10;87.10
27368;DHT22;14839;48.106;11.618;2023-04-29T08:01:09;20.20;89.00
27368;DHT22;14839;48.106;11.618;2023-04-29T08:03:36;20.10;88.30
27368;DHT22;14839;48.106;11.618;2023-04-29T08:06:05;20.80;89.50
27368;DHT22;14839;48.106;11.618;2023-04-29T08:08:31;20.90;83.60
27368;DHT22;14839;48.106;11.618;2023-04-29T08:10:57;20.60;86.20
27368;DHT22;14839;48.106;11.618;2023-04-29T08:13:23;20.20;85.60
27368;DHT22;14839;48.106;11.618;2023-04-29T08:15:48;20.00;86.90
27368;DHT22;14839;48.106;11.618;2023-04-29T08:18:14;19.80;87.10
27368;DHT22;14839;48.106;11.618;2023-04-29T08:20:40;19.90;89.80
27368;DHT22;14839;48.106;11.618;2023-04-29T08:23:06;20.60;90.40
27368;DHT22;14839;48.106;11.618;2023-04-29T08:25:31;21.20;84.70
27368;DHT22;14839;48.106;11.618;2023-04-29T08:27:57;21.00;82.40
27368;DHT22;14839;48.106;11.618;2023-04-29T08:30:23;20.50;85.70
27368;DHT22;14839;48.106;11.618;2023-04-29T08:32:48;20.40;84.50
27368;DHT22;14839;48.106;11.618;2023-04-29T08:35:15;20.30;86.50
27368;DHT22;14839;48.106;11.618;2023-04-29T08:37:40;19.80;87.20
27368;DHT22;14839;48.106;11.618;2023-04-29T08:40:07;19.40;87.70
27368;DHT22;14839;48.106;11.618;2023-04-29T08:42:35;19.00;89.30
27368;DHT22;14839;48.106;11.618;2023-04-29T08:45:01;18.30;91.30
27368;DHT22;14839;48.106;11.618;2023-04-29T08:47:31;18.00;92.50
27368;DHT22;14839;48.106;11.618;2023-04-29T08:50:03;17.70;92.90
27368;DHT22;14839;48.106;11.618;2023-04-29T08:52:33;17.30;92.20
27368;DHT22;14839;48.106;11.618;2023-04-29T08:54:59;17.80;93.90
27368;DHT22;14839;48.106;11.618;2023-04-29T08:57:27;18.50;91.50
27368;DHT22;14839;48.106;11.618;2023-04-29T08:59:54;19.70;89.80
27368;DHT22;14839;48.106;11.618;2023-04-29T09:02:20;20.70;86.00
27368;DHT22;14839;48.106;11.618;2023-04-29T09:04:55;21.60;80.50
27368;DHT22;14839;48.106;11.618;2023-04-29T09:07:22;21.70;77.80
27368;DHT22;14839;48.106;11.618;2023-04-29T09:09:48;22.10;78.10
27368;DHT22;14839;48.106;11.618;2023-04-29T09:12:16;22.50;79.00
27368;DHT22;14839;48.106;11.618;2023-04-29T09:14:41;22.60;77.20
27368;DHT22;14839;48.106;11.618;2023-04-29T09:17:07;22.60;77.80
27368;DHT22;14839;48.106;11.618;2023-04-29T09:19:34;22.30;71.80
27368;DHT22;14839;48.106;11.618;2023-04-29T09:22:04;21.80;74.20
27368;DHT22;14839;48.106;11.618;2023-04-29T09:24:31;21.30;76.70
27368;DHT22;14839;48.106;11.618;2023-04-29T09:26:57;20.70;77.90
27368;DHT22;14839;48.106;11.618;2023-04-29T09:29:23;20.50;79.40
27368;DHT22;14839;48.106;11.618;2023-04-29T09:31:49;20.20;80.90
27368;DHT22;14839;48.106;11.618;2023-04-29T09:34:35;19.80;81.40
27368;DHT22;14839;48.106;11.618;2023-04-29T09:37:02;19.70;82.70
27368;DHT22;14839;48.106;11.618;2023-04-29T09:39:37;19.70;81.10
27368;DHT22;14839;48.106;11.618;2023-04-29T09:42:03;19.60;82.40
27368;DHT22;14839;48.106;11.618;2023-04-29T09:44:31;19.60;81.40
27368;DHT22;14839;48.106;11.618;2023-04-29T09:47:00;19.40;82.60
27368;DHT22;14839;48.106;11.618;2023-04-29T09:49:30;19.30;80.00
27368;DHT22;14839;48.106;11.618;2023-04-29T09:51:59;19.20;81.10
27368;DHT22;14839;48.106;11.618;2023-04-29T09:54:28;19.10;83.60
27368;DHT22;14839;48.106;11.618;2023-04-29T09:56:55;18.90;83.60
27368;DHT22;14839;48.106;11.618;2023-04-29T09:59:21;19.10;85.00
27368;DHT22;14839;48.106;11.618;2023-04-29T10:01:55;19.10;82.90
27368;DHT22;14839;48.106;11.618;2023-04-29T10:04:22;19.20;84.70
27368;DHT22;14839;48.106;11.618;2023-04-29T10:06:50;19.20;82.90
27368;DHT22;14839;48.106;11.618;2023-04-29T10:09:16;19.20;83.90
27368;DHT22;14839;48.106;11.618;2023-04-29T10:11:47;19.70;84.50
27368;DHT22;14839;48.106;11.618;2023-04-29T10:14:23;20.60;79.40
27368;DHT22;14839;48.106;11.618;2023-04-29T10:20:00;21.70;74.60
27368;DHT22;14839;48.106;11.618;2023-04-29T10:22:46;21.40;75.40
27368;DHT22;14839;48.106;11.618;2023-04-29T10:25:14;21.70;74.20
27368;DHT22;14839;48.106;11.618;2023-04-29T10:27:42;21.50;73.60
27368;DHT22;14839;48.106;11.618;2023-04-29T10:30:11;21.30;74.60
27368;DHT22;14839;48.106;11.618;2023-04-29T10:32:40;21.30;76.90
27368;DHT22;14839;48.106;11.618;2023-04-29T10:35:09;21.70;79.30
27368;DHT22;14839;48.106;11.618;2023-04-29T10:37:36;21.50;78.10
27368;DHT22;14839;48.106;11.618;2023-04-29T10:40:35;21.00;78.70
27368;DHT22;14839;48.106;11.618;2023-04-29T10:43:01;20.80;80.60
27368;DHT22;14839;48.106;11.618;2023-04-29T10:45:28;20.50;80.30
27368;DHT22;14839;48.106;11.618;2023-04-29T10:50:38;19.60;83.00
27368;DHT22;14839;48.106;11.618;2023-04-29T10:53:06;19.20;84.70
27368;DHT22;14839;48.106;11.618;2023-04-29T10:55:36;19.00;85.60
27368;DHT22;14839;48.106;11.618;2023-04-29T10:58:03;19.10;86.20
27368;DHT22;14839;48.106;11.618;2023-04-29T11:00:30;19.40;86.80
27368;DHT22;14839;48.106;11.618;2023-04-29T11:02:57;19.90;84.80
27368;DHT22;14839;48.106;11.618;2023-04-29T11:05:30;20.50;80.80
27368;DHT22;14839;48.106;11.618;2023-04-29T11:08:19;21.10;80.20
27368;DHT22;14839;48.106;11.618;2023-04-29T11:10:52;20.70;77.30
27368;DHT22;14839;48.106;11.618;2023-04-29T11:13:28;20.30;77.90
27368;DHT22;14839;48.106;11.618;2023-04-29T11:16:10;19.80;78.40
27368;DHT22;14839;48.106;11.618;2023-04-29T11:19:14;19.40;81.70
27368;DHT22;14839;48.106;11.618;2023-04-29T11:21:40;19.60;84.10
27368;DHT22;14839;48.106;11.618;2023-04-29T11:24:06;20.00;82.00
27368;DHT22;14839;48.106;11.618;2023-04-29T11:26:35;20.00;78.50
27368;DHT22;14839;48.106;11.618;2023-04-29T11:29:01;20.20;79.10
27368;DHT22;14839;48.106;11.618;2023-04-29T11:31:30;20.40;76.90
27368;DHT22;14839;48.106;11.618;2023-04-29T11:33:56;20.60;76.30
27368;DHT22;14839;48.106;11.618;2023-04-29T11:36:21;20.80;74.30
27368;DHT22;14839;48.106;11.618;2023-04-29T11:38:47;20.60;74.90
27368;DHT22;14839;48.106;11.618;2023-04-29T11:41:12;20.40;76.00
27368;DHT22;14839;48.106;11.618;2023-04-29T11:43:40;20.20;76.10
27368;DHT22;14839;48.106;11.618;2023-04-29T11:46:12;19.80;77.50
27368;DHT22;14839;48.106;11.618;2023-04-29T11:48:45;19.80;77.80
27368;DHT22;14839;48.106;11.618;2023-04-29T11:51:12;19.70;77.60
27368;DHT22;14839;48.106;11.618;2023-04-29T11:53:38;19.90;77.20
27368;DHT22;14839;48.106;11.618;2023-04-29T11:56:03;19.70;76.90
27368;DHT22;14839;48.106;11.618;2023-04-29T11:58:29;19.70;75.70
27368;DHT22;14839;48.106;11.618;2023-04-29T12:00:57;19.40;76.90
27368;DHT22;14839;48.106;11.618;2023-04-29T12:03:23;19.60;76.60
27368;DHT22;14839;48.106;11.618;2023-04-29T12:05:52;19.90;76.30
27368;DHT22;14839;48.106;11.618;2023-04-29T12:08:22;20.40;73.60
27368;DHT22;14839;48.106;11.618;2023-04-29T12:10:48;20.70;75.20
27368;DHT22;14839;48.106;11.618;2023-04-29T12:13:15;21.10;72.20
27368;DHT22;14839;48.106;11.618;2023-04-29T12:15:41;21.40;71.20
27368;DHT22;14839;48.106;11.618;2023-04-29T12:18:07;21.50;70.00
27368;DHT22;14839;48.106;11.618;2023-04-29T12:20:33;21.30;68.90
27368;DHT22;14839;48.106;11.618;2023-04-29T12:23:19;20.90;69.20
27368;DHT22;14839;48.106;11.618;2023-04-29T12:25:51;20.70;70.40
27368;DHT22;14839;48.106;11.618;2023-04-29T12:28:17;20.70;71.20
27368;DHT22;14839;48.106;11.618;2023-04-29T12:30:47;20.70;70.90
27368;DHT22;14839;48.106;11.618;2023-04-29T12:33:23;20.40;67.40
27368;DHT22;14839;48.106;11.618;2023-04-29T12:35:50;20.40;71.50
27368;DHT22;14839;48.106;11.618;2023-04-29T12:38:27;20.50;71.80
27368;DHT22;14839;48.106;11.618;2023-04-29T12:40:53;20.30;70.40
27368;DHT22;14839;48.106;11.618;2023-04-29T12:43:28;20.20;70.90
27368;DHT22;14839;48.106;11.618;2023-04-29T12:45:59;20.00;71.00
27368;DHT22;14839;48.106;11.618;2023-04-29T12:48:29;20.00;71.20
27368;DHT22;14839;48.106;11.618;2023-04-29T12:50:56;20.10;72.40
27368;DHT22;14839;48.106;11.618;2023-04-29T12:53:24;20.20;71.80
27368;DHT22;14839;48.106;11.618;2023-04-29T12:55:50;20.40;71.60
27368;DHT22;14839;48.106;11.618;2023-04-29T12:58:16;20.40;71.20
27368;DHT22;14839;48.106;11.618;2023-04-29T13:00:42;20.40;72.80
27368;DHT22;14839;48.106;11.618;2023-04-29T13:03:08;20.30;71.60
27368;DHT22;14839;48.106;11.618;2023-04-29T13:05:33;20.60;72.40
27368;DHT22;14839;48.106;11.618;2023-04-29T13:07:59;20.70;71.20
27368;DHT22;14839;48.106;11.618;2023-04-29T13:10:25;20.60;68.60
27368;DHT22;14839;48.106;11.618;2023-04-29T13:12:53;20.50;68.20
27368;DHT22;14839;48.106;11.618;2023-04-29T13:15:18;20.40;70.40
27368;DHT22;14839;48.106;11.618;2023-04-29T13:17:44;20.30;71.50
27368;DHT22;14839;48.106;11.618;2023-04-29T13:20:10;20.40;69.70
27368;DHT22;14839;48.106;11.618;2023-04-29T13:22:36;20.20;68.60
27368;DHT22;14839;48.106;11.618;2023-04-29T13:25:02;20.10;72.40
27368;DHT22;14839;48.106;11.618;2023-04-29T13:27:29;20.10;70.90
27368;DHT22;14839;48.106;11.618;2023-04-29T13:29:55;19.90;71.20
27368;DHT22;14839;48.106;11.618;2023-04-29T13:32:21;19.90;71.00
27368;DHT22;14839;48.106;11.618;2023-04-29T13:34:49;19.80;71.90
27368;DHT22;14839;48.106;11.618;2023-04-29T13:37:14;19.90;71.20
27368;DHT22;14839;48.106;11.618;2023-04-29T13:39:41;19.80;71.20
27368;DHT22;14839;48.106;11.618;2023-04-29T13:42:06;19.70;71.20
27368;DHT22;14839;48.106;11.618;2023-04-29T13:44:32;19.60;71.90
27368;DHT22;14839;48.106;11.618;2023-04-29T13:46:58;19.90;72.50
27368;DHT22;14839;48.106;11.618;2023-04-29T13:49:24;20.00;69.10
27368;DHT22;14839;48.106;11.618;2023-04-29T13:51:49;19.80;69.40
27368;DHT22;14839;48.106;11.618;2023-04-29T13:54:15;19.70;71.20
27368;DHT22;14839;48.106;11.618;2023-04-29T13:56:41;19.70;71.90
27368;DHT22;14839;48.106;11.618;2023-04-29T13:59:07;19.80;71.30
27368;DHT22;14839;48.106;11.618;2023-04-29T14:01:32;19.80;70.10
27368;DHT22;14839;48.106;11.618;2023-04-29T14:03:58;19.70;69.50
27368;DHT22;14839;48.106;11.618;2023-04-29T14:06:24;19.70;70.10
27368;DHT22;14839;48.106;11.618;2023-04-29T14:08:49;19.50;69.80
27368;DHT22;14839;48.106;11.618;2023-04-29T14:11:15;19.40;69.80
27368;DHT22;14839;48.106;11.618;2023-04-29T14:13:41;19.40;69.40
27368;DHT22;14839;48.106;11.618;2023-04-29T14:16:07;19.20;70.40
27368;DHT22;14839;48.106;11.618;2023-04-29T14:18:33;19.20;70.30
27368;DHT22;14839;48.106;11.618;2023-04-29T14:20:59;19.20;70.40
27368;DHT22;14839;48.106;11.618;2023-04-29T14:23:24;19.10;71.50
27368;DHT22;14839;48.106;11.618;2023-04-29T14:25:50;19.00;72.80
27368;DHT22;14839;48.106;11.618;2023-04-29T14:28:16;19.10;73.40
27368;DHT22;14839;48.106;11.618;2023-04-29T14:30:41;19.20;71.30
27368;DHT22;14839;48.106;11.618;2023-04-29T14:33:08;19.10;72.40
27368;DHT22;14839;48.106;11.618;2023-04-29T14:35:33;18.90;74.30
27368;DHT22;14839;48.106;11.618;2023-04-29T14:37:59;18.90;75.20
27368;DHT22;14839;48.106;11.618;2023-04-29T14:40:24;18.80;74.30
27368;DHT22;14839;48.106;11.618;2023-04-29T14:42:50;18.70;73.10
27368;DHT22;14839;48.106;11.618;2023-04-29T14:45:16;18.50;75.50
27368;DHT22;14839;48.106;11.618;2023-04-29T14:47:41;18.50;74.50
27368;DHT22;14839;48.106;11.618;2023-04-29T14:50:08;18.50;76.10
27368;DHT22;14839;48.106;11.618;2023-04-29T14:52:34;18.50;76.30
27368;DHT22;14839;48.106;11.618;2023-04-29T14:55:00;18.60;75.20
27368;DHT22;14839;48.106;11.618;2023-04-29T14:57:26;18.50;75.40
27368;DHT22;14839;48.106;11.618;2023-04-29T14:59:52;18.60;75.40
27368;DHT22;14839;48.106;11.618;2023-04-29T15:02:17;18.70;75.80
27368;DHT22;14839;48.106;11.618;2023-04-29T15:04:43;18.80;76.00
27368;DHT22;14839;48.106;11.618;2023-04-29T15:07:14;18.80;74.00
27368;DHT22;14839;48.106;11.618;2023-04-29T15:09:40;18.80;73.70
27368;DHT22;14839;48.106;11.618;2023-04-29T15:12:06;18.70;74.30
27368;DHT22;14839;48.106;11.618;2023-04-29T15:14:32;18.60;75.50
27368;DHT22;14839;48.106;11.618;2023-04-29T15:16:58;18.40;73.90
27368;DHT22;14839;48.106;11.618;2023-04-29T15:19:24;18.30;75.20
27368;DHT22;14839;48.106;11.618;2023-04-29T15:21:51;18.10;75.50
27368;DHT22;14839;48.106;11.618;2023-04-29T15:24:17;18.00;76.40
27368;DHT22;14839;48.106;11.618;2023-04-29T15:26:43;18.10;76.00
27368;DHT22;14839;48.106;11.618;2023-04-29T15:29:09;18.20;74.90
27368;DHT22;14839;48.106;11.618;2023-04-29T15:31:36;18.30;74.50
27368;DHT22;14839;48.106;11.618;2023-04-29T15:34:01;18.40;75.70
27368;DHT22;14839;48.106;11.618;2023-04-29T15:36:29;18.30;73.60
27368;DHT22;14839;48.106;11.618;2023-04-29T15:38:55;18.10;74.50
27368;DHT22;14839;48.106;11.618;2023-04-29T15:41:21;17.90;76.00
27368;DHT22;14839;48.106;11.618;2023-04-29T15:43:47;17.90;76.60
27368;DHT22;14839;48.106;11.618;2023-04-29T15:46:12;17.80;77.00
27368;DHT22;14839;48.106;11.618;2023-04-29T15:48:38;17.80;77.00
27368;DHT22;14839;48.106;11.618;2023-04-29T15:51:04;17.90;76.60
27368;DHT22;14839;48.106;11.618;2023-04-29T15:53:29;17.80;76.30
27368;DHT22;14839;48.106;11.618;2023-04-29T15:55:55;17.60;75.70
27368;DHT22;14839;48.106;11.618;2023-04-29T15:58:20;17.50;76.40
27368;DHT22;14839;48.106;11.618;2023-04-29T16:00:46;17.50;76.10
27368;DHT22;14839;48.106;11.618;2023-04-29T16:03:12;17.50;76.70
27368;DHT22;14839;48.106;11.618;2023-04-29T16:05:37;17.40;76.90
27368;DHT22;14839;48.106;11.618;2023-04-29T16:08:04;17.30;76.60
27368;DHT22;14839;48.106;11.618;2023-04-29T16:10:29;17.40;76.00
27368;DHT22;14839;48.106;11.618;2023-04-29T16:12:55;17.40;76.70
27368;DHT22;14839;48.106;11.618;2023-04-29T16:15:21;17.50;77.30
27368;DHT22;14839;48.106;11.618;2023-04-29T16:17:47;17.70;77.00
27368;DHT22;14839;48.106;11.618;2023-04-29T16:20:12;17.60;76.90
27368;DHT22;14839;48.106;11.618;2023-04-29T16:22:38;17.50;76.90
27368;DHT22;14839;48.106;11.618;2023-04-29T16:25:04;17.60;76.70
27368;DHT22;14839;48.106;11.618;2023-04-29T16:27:30;17.50;76.00
27368;DHT22;14839;48.106;11.618;2023-04-29T16:29:56;17.50;78.10
27368;DHT22;14839;48.106;11.618;2023-04-29T16:32:21;17.50;76.00
27368;DHT22;14839;48.106;11.618;2023-04-29T16:34:47;17.50;76.90
27368;DHT22;14839;48.106;11.618;2023-04-29T16:37:13;17.80;75.20
27368;DHT22;14839;48.106;11.618;2023-04-29T16:39:39;17.90;74.60
27368;DHT22;14839;48.106;11.618;2023-04-29T16:42:05;17.90;73.90
27368;DHT22;14839;48.106;11.618;2023-04-29T16:44:31;17.70;77.20
27368;DHT22;14839;48.106;11.618;2023-04-29T16:46:57;17.60;78.10
27368;DHT22;14839;48.106;11.618;2023-04-29T16:49:24;17.60;76.90
27368;DHT22;14839;48.106;11.618;2023-04-29T16:51:53;17.50;77.20
27368;DHT22;14839;48.106;11.618;2023-04-29T16:54:20;17.40;77.90
27368;DHT22;14839;48.106;11.618;2023-04-29T16:56:46;17.20;78.80
27368;DHT22;14839;48.106;11.618;2023-04-29T16:59:11;17.20;78.80
27368;DHT22;14839;48.106;11.618;2023-04-29T17:01:37;17.00;78.50
27368;DHT22;14839;48.106;11.618;2023-04-29T17:04:04;16.90;79.30
27368;DHT22;14839;48.106;11.618;2023-04-29T17:06:30;16.70;79.40
27368;DHT22;14839;48.106;11.618;2023-04-29T17:08:56;16.50;80.90
27368;DHT22;14839;48.106;11.618;2023-04-29T17:11:23;16.30;80.50
27368;DHT22;14839;48.106;11.618;2023-04-29T17:13:48;16.10;82.30
27368;DHT22;14839;48.106;11.618;2023-04-29T17:16:15;16.00;82.40
27368;DHT22;14839;48.106;11.618;2023-04-29T17:18:41;15.80;83.20
27368;DHT22;14839;48.106;11.618;2023-04-29T17:21:06;15.80;83.30
27368;DHT22;14839;48.106;11.618;2023-04-29T17:23:33;15.70;84.20
27368;DHT22;14839;48.106;11.618;2023-04-29T17:25:58;15.70;84.40
27368;DHT22;14839;48.106;11.618;2023-04-29T17:28:24;15.60;84.50
27368;DHT22;14839;48.106;11.618;2023-04-29T17:30:49;15.60;85.10
27368;DHT22;14839;48.106;11.618;2023-04-29T17:33:17;15.50;86.30
27368;DHT22;14839;48.106;11.618;2023-04-29T17:35:42;15.50;85.60
27368;DHT22;14839;48.106;11.618;2023-04-29T17:38:09;15.40;86.80
27368;DHT22;14839;48.106;11.618;2023-04-29T17:40:36;15.40;86.60
27368;DHT22;14839;48.106;11.618;2023-04-29T17:43:02;15.40;87.10
27368;DHT22;14839;48.106;11.618;2023-04-29T17:45:27;15.30;86.60
27368;DHT22;14839;48.106;11.618;2023-04-29T17:47:53;15.10;88.40
27368;DHT22;14839;48.106;11.618;2023-04-29T17:50:18;15.10;88.90
27368;DHT22;14839;48.106;11.618;2023-04-29T17:52:44;15.10;88.70
27368;DHT22;14839;48.106;11.618;2023-04-29T17:55:10;15.10;89.30
27368;DHT22;14839;48.106;11.618;2023-04-29T17:57:35;15.00;88.70
27368;DHT22;14839;48.106;11.618;2023-04-29T18:00:06;15.00;90.10
27368;DHT22;14839;48.106;11.618;2023-04-29T18:02:33;15.00;90.10
27368;DHT22;14839;48.106;11.618;2023-04-29T18:05:01;14.90;90.10
27368;DHT22;14839;48.106;11.618;2023-04-29T18:07:27;14.80;89.60
27368;DHT22;14839;48.106;11.618;2023-04-29T18:09:53;14.80;90.20
27368;DHT22;14839;48.106;11.618;2023-04-29T18:12:18;14.70;90.90
27368;DHT22;14839;48.106;11.618;2023-04-29T18:14:44;14.50;91.40
27368;DHT22;14839;48.106;11.618;2023-04-29T18:17:10;14.50;92.10
27368;DHT22;14839;48.106;11.618;2023-04-29T18:19:36;14.40;91.90
27368;DHT22;14839;48.106;11.618;2023-04-29T18:22:01;14.40;92.50
27368;DHT22;14839;48.106;11.618;2023-04-29T18:24:27;14.30;92.90
27368;DHT22;14839;48.106;11.618;2023-04-29T18:26:55;14.30;93.20
27368;DHT22;14839;48.106;11.618;2023-04-29T18:29:21;14.20;93.50
27368;DHT22;14839;48.106;11.618;2023-04-29T18:31:47;14.20;93.60
27368;DHT22;14839;48.106;11.618;2023-04-29T18:34:13;14.10;93.50
27368;DHT22;14839;48.106;11.618;2023-04-29T18:36:38;14.10;92.60
27368;DHT22;14839;48.106;11.618;2023-04-29T18:39:04;14.00;92.40
27368;DHT22;14839;48.106;11.618;2023-04-29T18:41:29;14.00;92.80
27368;DHT22;14839;48.106;11.618;2023-04-29T18:43:55;13.90;92.60
27368;DHT22;14839;48.106;11.618;2023-04-29T18:46:21;13.90;93.10
27368;DHT22;14839;48.106;11.618;2023-04-29T18:48:47;13.90;93.10
27368;DHT22;14839;48.106;11.618;2023-04-29T18:51:13;13.80;93.50
27368;DHT22;14839;48.106;11.618;2023-04-29T18:53:38;13.80;93.60
27368;DHT22;14839;48.106;11.618;2023-04-29T18:56:04;13.80;93.40
27368;DHT22;14839;48.106;11.618;2023-04-29T18:58:29;13.80;93.80
27368;DHT22;14839;48.106;11.618;2023-04-29T19:00:55;13.70;94.10
27368;DHT22;14839;48.106;11.618;2023-04-29T19:03:24;13.70;94.40
27368;DHT22;14839;48.106;11.618;2023-04-29T19:05:50;13.70;94.60
27368;DHT22;14839;48.106;11.618;2023-04-29T19:08:15;13.70;94.60
27368;DHT22;14839;48.106;11.618;2023-04-29T19:10:44;13.70;94.60
27368;DHT22;14839;48.106;11.618;2023-04-29T19:13:10;13.70;94.60
27368;DHT22;14839;48.106;11.618;2023-04-29T19:15:36;13.60;94.60
27368;DHT22;14839;48.106;11.618;2023-04-29T19:18:02;13.60;94.60
27368;DHT22;14839;48.106;11.618;2023-04-29T19:20:27;13.50;94.50